sensor_id;sensor_type;location;lat;lon;timestamp;temperature;humidity
664;DHT22;314;48.770;9.246;2022-08-01T00:00:23;24.20;57.60
664;DHT22;314;48.770;9.246;2022-08-01T00:02:49;24.20;58.10
664;DHT22;314;48.770;9.246;2022-08-01T00:05:14;24.20;58.00
664;DHT22;314;48.770;9.246;2022-08-01T00:07:40;24.10;58.10
664;DHT22;314;48.770;9.246;2022-08-01T00:10:10;24.00;58.10
664;DHT22;314;48.770;9.246;2022-08-01T00:12:36;24.00;59.10
664;DHT22;314;48.770;9.246;2022-08-01T00:15:03;24.00;60.50
664;DHT22;314;48.770;9.246;2022-08-01T00:17:29;23.90;60.50
664;DHT22;314;48.770;9.246;2022-08-01T00:19:55;23.90;61.60
664;DHT22;314;48.770;9.246;2022-08-01T00:22:20;23.80;62.00
664;DHT22;314;48.770;9.246;2022-08-01T00:24:46;23.80;62.60
664;DHT22;314;48.770;9.246;2022-08-01T00:27:12;23.70;63.30
664;DHT22;314;48.770;9.246;2022-08-01T00:29:38;23.70;63.30
664;DHT22;314;48.770;9.246;2022-08-01T00:32:04;23.60;63.70
664;DHT22;314;48.770;9.246;2022-08-01T00:34:29;23.60;64.10
664;DHT22;314;48.770;9.246;2022-08-01T00:36:55;23.50;63.80
664;DHT22;314;48.770;9.246;2022-08-01T00:39:21;23.40;64.20
664;DHT22;314;48.770;9.246;2022-08-01T00:41:47;23.40;64.40
664;DHT22;314;48.770;9.246;2022-08-01T00:44:12;23.30;63.70
664;DHT22;314;48.770;9.246;2022-08-01T00:46:38;23.20;64.60
664;DHT22;314;48.770;9.246;2022-08-01T00:49:04;23.20;65.10
664;DHT22;314;48.770;9.246;2022-08-01T00:51:30;23.10;65.20
664;DHT22;314;48.770;9.246;2022-08-01T00:53:56;23.00;65.30
664;DHT22;314;48.770;9.246;2022-08-01T00:56:25;23.00;64.60
664;DHT22;314;48.770;9.246;2022-08-01T00:58:52;23.10;64.40
664;DHT22;314;48.770;9.246;2022-08-01T01:01:18;23.10;64.10
664;DHT22;314;48.770;9.246;2022-08-01T01:03:46;23.00;64.20
664;DHT22;314;48.770;9.246;2022-08-01T01:12:13;23.20;63.80
664;DHT22;314;48.770;9.246;2022-08-01T01:14:55;23.20;64.10
664;DHT22;314;48.770;9.246;2022-08-01T01:17:28;23.20;64.20
664;DHT22;314;48.770;9.246;2022-08-01T01:19:59;23.20;64.40
664;DHT22;314;48.770;9.246;2022-08-01T01:25:51;23.10;65.30
664;DHT22;314;48.770;9.246;2022-08-01T01:28:26;23.10;65.60
664;DHT22;314;48.770;9.246;2022-08-01T01:30:55;23.10;65.60
664;DHT22;314;48.770;9.246;2022-08-01T01:33:25;23.10;65.60
664;DHT22;314;48.770;9.246;2022-08-01T01:35:59;23.10;65.50
664;DHT22;314;48.770;9.246;2022-08-01T01:38:33;23.10;65.90
664;DHT22;314;48.770;9.246;2022-08-01T01:41:00;23.00;66.40
664;DHT22;314;48.770;9.246;2022-08-01T01:43:29;22.90;66.70
664;DHT22;314;48.770;9.246;2022-08-01T01:45:56;22.90;66.90
664;DHT22;314;48.770;9.246;2022-08-01T01:48:23;23.00;67.00
664;DHT22;314;48.770;9.246;2022-08-01T01:50:51;22.90;67.30
664;DHT22;314;48.770;9.246;2022-08-01T01:53:21;22.90;67.40
664;DHT22;314;48.770;9.246;2022-08-01T01:55:52;22.80;67.80
664;DHT22;314;48.770;9.246;2022-08-01T01:58:19;22.80;67.80
664;DHT22;314;48.770;9.246;2022-08-01T02:00:47;22.80;67.80
664;DHT22;314;48.770;9.246;2022-08-01T02:03:14;22.80;68.10
664;DHT22;314;48.770;9.246;2022-08-01T02:05:51;22.80;68.30
664;DHT22;314;48.770;9.246;2022-08-01T02:08:18;22.80;68.40
664;DHT22;314;48.770;9.246;2022-08-01T02:10:46;22.80;68.50
664;DHT22;314;48.770;9.246;2022-08-01T02:13:33;22.80;68.70
664;DHT22;314;48.770;9.246;2022-08-01T02:16:00;22.70;69.10
664;DHT22;314;48.770;9.246;2022-08-01T02:18:27;22.70;69.10
664;DHT22;314;48.770;9.246;2022-08-01T02:20:54;22.70;69.50
664;DHT22;314;48.770;9.246;2022-08-01T02:23:23;22.70;69.50
664;DHT22;314;48.770;9.246;2022-08-01T02:28:28;22.50;70.10
664;DHT22;314;48.770;9.246;2022-08-01T02:31:00;22.50;70.30
664;DHT22;314;48.770;9.246;2022-08-01T02:33:50;22.40;71.60
664;DHT22;314;48.770;9.246;2022-08-01T02:36:18;22.40;71.30
664;DHT22;314;48.770;9.246;2022-08-01T02:38:46;22.40;71.70
664;DHT22;314;48.770;9.246;2022-08-01T02:41:19;22.30;71.90
664;DHT22;314;48.770;9.246;2022-08-01T02:43:48;22.30;71.90
664;DHT22;314;48.770;9.246;2022-08-01T02:46:28;22.20;72.30
664;DHT22;314;48.770;9.246;2022-08-01T02:48:56;22.20;72.10
664;DHT22;314;48.770;9.246;2022-08-01T02:51:25;22.20;72.10
664;DHT22;314;48.770;9.246;2022-08-01T02:53:53;22.20;72.10
664;DHT22;314;48.770;9.246;2022-08-01T02:56:21;22.20;73.70
664;DHT22;314;48.770;9.246;2022-08-01T02:58:48;22.10;73.50
664;DHT22;314;48.770;9.246;2022-08-01T03:01:16;22.10;74.50
664;DHT22;314;48.770;9.246;2022-08-01T03:03:42;22.00;73.50
664;DHT22;314;48.770;9.246;2022-08-01T03:06:09;21.90;73.50
664;DHT22;314;48.770;9.246;2022-08-01T03:08:36;21.90;73.90
664;DHT22;314;48.770;9.246;2022-08-01T03:11:03;21.90;73.80
664;DHT22;314;48.770;9.246;2022-08-01T03:13:31;21.80;73.90
664;DHT22;314;48.770;9.246;2022-08-01T03:15:58;21.80;74.20
664;DHT22;314;48.770;9.246;2022-08-01T03:18:26;21.80;74.40
664;DHT22;314;48.770;9.246;2022-08-01T03:20:54;21.80;74.50
664;DHT22;314;48.770;9.246;2022-08-01T03:23:21;21.80;74.80
664;DHT22;314;48.770;9.246;2022-08-01T03:25:49;21.70;75.10
664;DHT22;314;48.770;9.246;2022-08-01T03:28:18;21.70;75.30
664;DHT22;314;48.770;9.246;2022-08-01T03:30:47;21.80;75.60
664;DHT22;314;48.770;9.246;2022-08-01T03:33:15;21.70;75.60
664;DHT22;314;48.770;9.246;2022-08-01T03:35:46;21.60;76.00
664;DHT22;314;48.770;9.246;2022-08-01T03:38:13;21.60;75.90
664;DHT22;314;48.770;9.246;2022-08-01T03:40:52;21.70;75.80
664;DHT22;314;48.770;9.246;2022-08-01T03:43:34;21.70;76.20
664;DHT22;314;48.770;9.246;2022-08-01T03:46:10;21.70;76.40
664;DHT22;314;48.770;9.246;2022-08-01T03:48:42;21.70;76.60
664;DHT22;314;48.770;9.246;2022-08-01T03:51:09;21.70;76.60
664;DHT22;314;48.770;9.246;2022-08-01T03:53:36;21.60;76.90
664;DHT22;314;48.770;9.246;2022-08-01T03:56:04;21.60;77.00
664;DHT22;314;48.770;9.246;2022-08-01T03:58:35;21.70;76.90
664;DHT22;314;48.770;9.246;2022-08-01T04:01:02;21.70;77.00
664;DHT22;314;48.770;9.246;2022-08-01T04:03:28;21.70;77.30
664;DHT22;314;48.770;9.246;2022-08-01T04:05:55;21.70;77.30
664;DHT22;314;48.770;9.246;2022-08-01T04:08:20;21.70;77.40
664;DHT22;314;48.770;9.246;2022-08-01T04:10:46;21.70;77.40
664;DHT22;314;48.770;9.246;2022-08-01T04:13:12;21.80;77.30
664;DHT22;314;48.770;9.246;2022-08-01T04:15:38;21.80;77.30
664;DHT22;314;48.770;9.246;2022-08-01T04:18:04;21.80;77.70
664;DHT22;314;48.770;9.246;2022-08-01T04:20:32;21.80;77.70
664;DHT22;314;48.770;9.246;2022-08-01T04:22:58;21.80;78.10
664;DHT22;314;48.770;9.246;2022-08-01T04:25:32;21.80;77.80
664;DHT22;314;48.770;9.246;2022-08-01T04:28:00;21.90;77.40
664;DHT22;314;48.770;9.246;2022-08-01T04:30:31;21.90;77.60
664;DHT22;314;48.770;9.246;2022-08-01T04:33:01;22.00;77.10
664;DHT22;314;48.770;9.246;2022-08-01T04:35:29;22.00;77.30
664;DHT22;314;48.770;9.246;2022-08-01T04:37:56;22.00;77.30
664;DHT22;314;48.770;9.246;2022-08-01T04:40:23;22.00;77.40
664;DHT22;314;48.770;9.246;2022-08-01T04:42:51;22.20;77.30
664;DHT22;314;48.770;9.246;2022-08-01T04:45:17;22.20;77.40
664;DHT22;314;48.770;9.246;2022-08-01T04:47:45;22.10;77.60
664;DHT22;314;48.770;9.246;2022-08-01T04:50:13;22.20;77.70
664;DHT22;314;48.770;9.246;2022-08-01T04:52:39;22.20;77.70
664;DHT22;314;48.770;9.246;2022-08-01T04:55:08;22.20;77.70
664;DHT22;314;48.770;9.246;2022-08-01T04:57:39;22.20;77.40
664;DHT22;314;48.770;9.246;2022-08-01T05:00:07;22.20;77.70
664;DHT22;314;48.770;9.246;2022-08-01T05:02:33;22.30;77.60
664;DHT22;314;48.770;9.246;2022-08-01T05:05:06;22.40;77.40
664;DHT22;314;48.770;9.246;2022-08-01T05:07:32;22.40;77.70
664;DHT22;314;48.770;9.246;2022-08-01T05:10:05;22.50;77.70
664;DHT22;314;48.770;9.246;2022-08-01T05:12:31;22.60;77.30
664;DHT22;314;48.770;9.246;2022-08-01T05:14:58;22.60;77.40
664;DHT22;314;48.770;9.246;2022-08-01T05:17:25;22.60;76.60
664;DHT22;314;48.770;9.246;2022-08-01T05:19:51;22.50;77.40
664;DHT22;314;48.770;9.246;2022-08-01T05:22:17;22.50;77.10
664;DHT22;314;48.770;9.246;2022-08-01T05:24:42;22.50;76.70
664;DHT22;314;48.770;9.246;2022-08-01T05:27:08;22.40;77.40
664;DHT22;314;48.770;9.246;2022-08-01T05:29:34;22.30;78.00
664;DHT22;314;48.770;9.246;2022-08-01T05:32:01;22.20;77.80
664;DHT22;314;48.770;9.246;2022-08-01T05:34:27;22.20;78.40
664;DHT22;314;48.770;9.246;2022-08-01T05:36:53;22.30;78.10
664;DHT22;314;48.770;9.246;2022-08-01T05:39:19;22.30;78.30
664;DHT22;314;48.770;9.246;2022-08-01T05:41:45;22.30;78.30
664;DHT22;314;48.770;9.246;2022-08-01T05:44:11;22.40;77.80
664;DHT22;314;48.770;9.246;2022-08-01T05:46:37;22.50;78.00
664;DHT22;314;48.770;9.246;2022-08-01T05:49:04;22.50;78.10
664;DHT22;314;48.770;9.246;2022-08-01T05:51:31;22.60;77.40
664;DHT22;314;48.770;9.246;2022-08-01T05:53:57;22.70;77.40
664;DHT22;314;48.770;9.246;2022-08-01T05:56:23;22.80;77.10
664;DHT22;314;48.770;9.246;2022-08-01T05:58:50;22.80;77.70
664;DHT22;314;48.770;9.246;2022-08-01T06:01:17;22.90;76.60
664;DHT22;314;48.770;9.246;2022-08-01T06:03:43;23.00;76.20
664;DHT22;314;48.770;9.246;2022-08-01T06:06:09;23.10;75.80
664;DHT22;314;48.770;9.246;2022-08-01T06:08:35;23.20;76.20
664;DHT22;314;48.770;9.246;2022-08-01T06:11:01;23.30;75.60
664;DHT22;314;48.770;9.246;2022-08-01T06:13:27;23.40;75.30
664;DHT22;314;48.770;9.246;2022-08-01T06:15:54;23.50;75.80
664;DHT22;314;48.770;9.246;2022-08-01T06:18:19;23.60;75.20
664;DHT22;314;48.770;9.246;2022-08-01T06:20:46;23.70;74.20
664;DHT22;314;48.770;9.246;2022-08-01T06:23:12;23.80;74.60
664;DHT22;314;48.770;9.246;2022-08-01T06:25:39;24.00;74.60
664;DHT22;314;48.770;9.246;2022-08-01T06:28:05;24.10;73.90
664;DHT22;314;48.770;9.246;2022-08-01T06:30:31;24.20;72.80
664;DHT22;314;48.770;9.246;2022-08-01T06:32:57;24.20;73.30
664;DHT22;314;48.770;9.246;2022-08-01T06:35:26;24.30;73.70
664;DHT22;314;48.770;9.246;2022-08-01T06:37:52;24.40;73.90
664;DHT22;314;48.770;9.246;2022-08-01T06:40:18;24.50;73.10
664;DHT22;314;48.770;9.246;2022-08-01T06:42:44;24.60;72.00
664;DHT22;314;48.770;9.246;2022-08-01T06:45:12;24.70;71.70
664;DHT22;314;48.770;9.246;2022-08-01T06:47:39;24.70;72.40
664;DHT22;314;48.770;9.246;2022-08-01T06:50:07;24.70;72.10
664;DHT22;314;48.770;9.246;2022-08-01T06:52:37;24.70;71.40
664;DHT22;314;48.770;9.246;2022-08-01T06:55:04;24.80;72.00
664;DHT22;314;48.770;9.246;2022-08-01T06:57:31;24.80;72.10
664;DHT22;314;48.770;9.246;2022-08-01T06:59:56;25.00;72.70
664;DHT22;314;48.770;9.246;2022-08-01T07:02:23;25.00;70.90
664;DHT22;314;48.770;9.246;2022-08-01T07:04:49;25.00;70.60
664;DHT22;314;48.770;9.246;2022-08-01T07:07:15;25.00;71.00
664;DHT22;314;48.770;9.246;2022-08-01T07:09:41;25.10;71.30
664;DHT22;314;48.770;9.246;2022-08-01T07:12:08;25.00;70.30
664;DHT22;314;48.770;9.246;2022-08-01T07:14:35;25.00;69.90
664;DHT22;314;48.770;9.246;2022-08-01T07:17:01;24.80;71.00
664;DHT22;314;48.770;9.246;2022-08-01T07:19:27;25.00;69.90
664;DHT22;314;48.770;9.246;2022-08-01T07:21:56;25.10;69.90
664;DHT22;314;48.770;9.246;2022-08-01T07:24:22;25.20;68.90
664;DHT22;314;48.770;9.246;2022-08-01T07:26:49;25.30;69.60
664;DHT22;314;48.770;9.246;2022-08-01T07:29:15;25.40;68.90
664;DHT22;314;48.770;9.246;2022-08-01T07:31:41;25.60;68.30
664;DHT22;314;48.770;9.246;2022-08-01T07:34:07;25.60;68.30
664;DHT22;314;48.770;9.246;2022-08-01T07:36:33;25.70;68.10
664;DHT22;314;48.770;9.246;2022-08-01T07:38:59;25.90;66.90
664;DHT22;314;48.770;9.246;2022-08-01T07:41:25;25.80;67.00
664;DHT22;314;48.770;9.246;2022-08-01T07:43:51;25.70;67.10
664;DHT22;314;48.770;9.246;2022-08-01T07:46:17;25.50;68.30
664;DHT22;314;48.770;9.246;2022-08-01T07:48:43;25.70;67.80
664;DHT22;314;48.770;9.246;2022-08-01T07:51:09;25.90;67.10
664;DHT22;314;48.770;9.246;2022-08-01T07:53:36;26.10;66.40
664;DHT22;314;48.770;9.246;2022-08-01T07:56:03;26.20;66.60
664;DHT22;314;48.770;9.246;2022-08-01T07:58:31;26.30;65.30
664;DHT22;314;48.770;9.246;2022-08-01T08:00:57;26.50;64.60
664;DHT22;314;48.770;9.246;2022-08-01T08:03:23;26.60;64.90
664;DHT22;314;48.770;9.246;2022-08-01T08:05:49;26.40;65.20
664;DHT22;314;48.770;9.246;2022-08-01T08:08:15;26.50;65.50
664;DHT22;314;48.770;9.246;2022-08-01T08:10:42;26.70;63.90
664;DHT22;314;48.770;9.246;2022-08-01T08:13:08;26.70;63.70
664;DHT22;314;48.770;9.246;2022-08-01T08:15:34;26.80;63.10
664;DHT22;314;48.770;9.246;2022-08-01T08:17:59;27.00;63.30
664;DHT22;314;48.770;9.246;2022-08-01T08:20:25;27.30;62.60
664;DHT22;314;48.770;9.246;2022-08-01T08:22:54;27.50;61.60
664;DHT22;314;48.770;9.246;2022-08-01T08:25:20;27.50;61.90
664;DHT22;314;48.770;9.246;2022-08-01T08:27:47;27.40;61.40
664;DHT22;314;48.770;9.246;2022-08-01T08:30:13;27.20;61.90
664;DHT22;314;48.770;9.246;2022-08-01T08:32:40;27.10;62.80
664;DHT22;314;48.770;9.246;2022-08-01T08:35:06;27.10;62.80
664;DHT22;314;48.770;9.246;2022-08-01T08:37:34;27.20;63.30
664;DHT22;314;48.770;9.246;2022-08-01T08:40:00;27.30;61.90
664;DHT22;314;48.770;9.246;2022-08-01T08:42:26;27.50;61.90
664;DHT22;314;48.770;9.246;2022-08-01T08:44:52;27.70;61.20
664;DHT22;314;48.770;9.246;2022-08-01T08:47:22;28.00;59.40
664;DHT22;314;48.770;9.246;2022-08-01T08:49:54;28.10;59.20
664;DHT22;314;48.770;9.246;2022-08-01T08:52:21;28.20;58.30
664;DHT22;314;48.770;9.246;2022-08-01T08:54:50;28.30;59.30
664;DHT22;314;48.770;9.246;2022-08-01T08:57:19;28.10;59.70
664;DHT22;314;48.770;9.246;2022-08-01T08:59:45;27.80;60.80
664;DHT22;314;48.770;9.246;2022-08-01T09:02:12;27.60;61.60
664;DHT22;314;48.770;9.246;2022-08-01T09:04:38;27.70;61.60
664;DHT22;314;48.770;9.246;2022-08-01T09:07:06;27.90;61.60
664;DHT22;314;48.770;9.246;2022-08-01T09:09:32;28.10;60.50
664;DHT22;314;48.770;9.246;2022-08-01T09:11:58;28.30;60.00
664;DHT22;314;48.770;9.246;2022-08-01T09:14:25;28.50;58.80
664;DHT22;314;48.770;9.246;2022-08-01T09:17:07;28.30;59.40
664;DHT22;314;48.770;9.246;2022-08-01T09:19:55;27.90;60.60
664;DHT22;314;48.770;9.246;2022-08-01T09:22:23;27.90;60.10
664;DHT22;314;48.770;9.246;2022-08-01T09:27:25;28.00;60.30
664;DHT22;314;48.770;9.246;2022-08-01T09:29:54;28.00;60.10
664;DHT22;314;48.770;9.246;2022-08-01T09:32:31;28.00;59.10
664;DHT22;314;48.770;9.246;2022-08-01T09:34:58;28.10;59.10
664;DHT22;314;48.770;9.246;2022-08-01T09:37:43;28.20;58.90
664;DHT22;314;48.770;9.246;2022-08-01T09:40:09;28.40;58.40
664;DHT22;314;48.770;9.246;2022-08-01T09:42:35;28.60;58.70
664;DHT22;314;48.770;9.246;2022-08-01T09:45:01;28.80;57.20
664;DHT22;314;48.770;9.246;2022-08-01T09:47:40;28.80;57.40
664;DHT22;314;48.770;9.246;2022-08-01T09:50:06;29.00;57.60
664;DHT22;314;48.770;9.246;2022-08-01T09:52:32;29.10;57.00
664;DHT22;314;48.770;9.246;2022-08-01T09:55:01;28.90;57.20
664;DHT22;314;48.770;9.246;2022-08-01T09:57:28;28.80;58.00
664;DHT22;314;48.770;9.246;2022-08-01T09:59:56;28.90;58.40
664;DHT22;314;48.770;9.246;2022-08-01T10:02:38;29.10;57.50
664;DHT22;314;48.770;9.246;2022-08-01T10:05:07;29.50;56.40
664;DHT22;314;48.770;9.246;2022-08-01T10:07:35;29.70;55.40
664;DHT22;314;48.770;9.246;2022-08-01T10:10:12;29.60;55.00
664;DHT22;314;48.770;9.246;2022-08-01T10:12:40;29.50;55.30
664;DHT22;314;48.770;9.246;2022-08-01T10:15:07;29.20;56.30
664;DHT22;314;48.770;9.246;2022-08-01T10:17:34;28.90;56.40
664;DHT22;314;48.770;9.246;2022-08-01T10:20:02;29.10;56.30
664;DHT22;314;48.770;9.246;2022-08-01T10:22:30;29.00;56.30
664;DHT22;314;48.770;9.246;2022-08-01T10:24:56;28.90;57.90
664;DHT22;314;48.770;9.246;2022-08-01T10:27:25;29.20;57.50
664;DHT22;314;48.770;9.246;2022-08-01T10:29:59;29.50;55.70
664;DHT22;314;48.770;9.246;2022-08-01T10:32:34;29.60;54.70
664;DHT22;314;48.770;9.246;2022-08-01T10:35:02;29.90;55.40
664;DHT22;314;48.770;9.246;2022-08-01T10:37:29;29.90;54.30
664;DHT22;314;48.770;9.246;2022-08-01T10:39:55;30.10;54.70
664;DHT22;314;48.770;9.246;2022-08-01T10:42:22;30.30;53.40
664;DHT22;314;48.770;9.246;2022-08-01T10:44:48;30.30;53.60
664;DHT22;314;48.770;9.246;2022-08-01T10:47:23;30.40;53.60
664;DHT22;314;48.770;9.246;2022-08-01T10:50:07;30.50;52.50
664;DHT22;314;48.770;9.246;2022-08-01T10:52:37;30.30;52.80
664;DHT22;314;48.770;9.246;2022-08-01T10:55:07;30.20;52.60
664;DHT22;314;48.770;9.246;2022-08-01T10:57:45;30.10;53.80
664;DHT22;314;48.770;9.246;2022-08-01T11:00:18;30.00;53.20
664;DHT22;314;48.770;9.246;2022-08-01T11:03:01;29.50;54.10
664;DHT22;314;48.770;9.246;2022-08-01T11:05:31;29.10;54.90
664;DHT22;314;48.770;9.246;2022-08-01T11:08:02;28.80;55.80
664;DHT22;314;48.770;9.246;2022-08-01T11:10:40;28.60;56.30
664;DHT22;314;48.770;9.246;2022-08-01T11:13:08;28.40;57.40
664;DHT22;314;48.770;9.246;2022-08-01T11:15:36;28.50;58.10
664;DHT22;314;48.770;9.246;2022-08-01T11:18:29;28.60;57.10
664;DHT22;314;48.770;9.246;2022-08-01T11:21:00;28.80;56.30
664;DHT22;314;48.770;9.246;2022-08-01T11:23:30;29.40;55.10
664;DHT22;314;48.770;9.246;2022-08-01T11:28:27;30.30;52.50
664;DHT22;314;48.770;9.246;2022-08-01T11:38:45;29.90;53.90
664;DHT22;314;48.770;9.246;2022-08-01T11:41:15;29.80;53.00
664;DHT22;314;48.770;9.246;2022-08-01T11:44:03;29.70;53.20
664;DHT22;314;48.770;9.246;2022-08-01T11:52:30;30.30;51.20
664;DHT22;314;48.770;9.246;2022-08-01T11:57:29;30.10;52.10
664;DHT22;314;48.770;9.246;2022-08-01T11:59:58;30.20;52.00
664;DHT22;314;48.770;9.246;2022-08-01T12:02:26;30.30;50.70
664;DHT22;314;48.770;9.246;2022-08-01T12:07:19;30.50;51.30
664;DHT22;314;48.770;9.246;2022-08-01T12:09:46;30.20;51.20
664;DHT22;314;48.770;9.246;2022-08-01T12:12:15;30.00;52.40
664;DHT22;314;48.770;9.246;2022-08-01T12:14:45;29.90;52.40
664;DHT22;314;48.770;9.246;2022-08-01T12:17:18;29.80;52.10
664;DHT22;314;48.770;9.246;2022-08-01T12:19:49;29.70;53.20
664;DHT22;314;48.770;9.246;2022-08-01T12:22:15;29.60;52.90
664;DHT22;314;48.770;9.246;2022-08-01T12:24:43;29.30;52.90
664;DHT22;314;48.770;9.246;2022-08-01T12:27:10;29.40;53.70
664;DHT22;314;48.770;9.246;2022-08-01T12:29:42;29.80;53.60
664;DHT22;314;48.770;9.246;2022-08-01T12:32:30;30.60;50.70
664;DHT22;314;48.770;9.246;2022-08-01T12:35:02;31.00;50.00
664;DHT22;314;48.770;9.246;2022-08-01T12:37:28;31.10;49.40
664;DHT22;314;48.770;9.246;2022-08-01T12:39:55;31.10;48.80
664;DHT22;314;48.770;9.246;2022-08-01T12:42:25;30.90;49.50
664;DHT22;314;48.770;9.246;2022-08-01T12:44:52;30.90;49.10
664;DHT22;314;48.770;9.246;2022-08-01T12:47:20;30.70;50.40
664;DHT22;314;48.770;9.246;2022-08-01T12:49:47;30.30;51.50
664;DHT22;314;48.770;9.246;2022-08-01T12:52:14;29.90;52.10
664;DHT22;314;48.770;9.246;2022-08-01T12:57:31;29.60;53.20
664;DHT22;314;48.770;9.246;2022-08-01T13:00:17;29.80;52.90
664;DHT22;314;48.770;9.246;2022-08-01T13:02:44;30.00;52.10
664;DHT22;314;48.770;9.246;2022-08-01T13:05:11;30.10;52.10
664;DHT22;314;48.770;9.246;2022-08-01T13:08:08;30.00;51.70
664;DHT22;314;48.770;9.246;2022-08-01T13:10:34;30.10;52.20
664;DHT22;314;48.770;9.246;2022-08-01T13:13:00;29.90;52.10
664;DHT22;314;48.770;9.246;2022-08-01T13:15:32;29.80;52.50
664;DHT22;314;48.770;9.246;2022-08-01T13:18:01;30.10;52.20
664;DHT22;314;48.770;9.246;2022-08-01T13:20:32;30.40;52.00
664;DHT22;314;48.770;9.246;2022-08-01T13:23:18;30.70;51.60
664;DHT22;314;48.770;9.246;2022-08-01T13:25:52;30.60;51.20
664;DHT22;314;48.770;9.246;2022-08-01T13:28:23;30.50;50.80
664;DHT22;314;48.770;9.246;2022-08-01T13:30:57;30.50;50.50
664;DHT22;314;48.770;9.246;2022-08-01T13:33:24;30.40;51.30
664;DHT22;314;48.770;9.246;2022-08-01T13:35:53;30.20;51.10
664;DHT22;314;48.770;9.246;2022-08-01T13:38:19;30.10;52.40
664;DHT22;314;48.770;9.246;2022-08-01T13:40:45;30.00;52.90
664;DHT22;314;48.770;9.246;2022-08-01T13:43:11;29.90;52.60
664;DHT22;314;48.770;9.246;2022-08-01T13:45:37;29.90;53.00
664;DHT22;314;48.770;9.246;2022-08-01T13:48:04;30.00;53.30
664;DHT22;314;48.770;9.246;2022-08-01T13:50:30;30.20;52.10
664;DHT22;314;48.770;9.246;2022-08-01T13:52:57;30.50;53.00
664;DHT22;314;48.770;9.246;2022-08-01T13:55:22;30.70;51.30
664;DHT22;314;48.770;9.246;2022-08-01T13:57:48;30.90;49.50
664;DHT22;314;48.770;9.246;2022-08-01T14:00:15;31.10;49.80
664;DHT22;314;48.770;9.246;2022-08-01T14:02:41;31.50;49.00
664;DHT22;314;48.770;9.246;2022-08-01T14:05:08;31.70;48.20
664;DHT22;314;48.770;9.246;2022-08-01T14:07:34;31.80;49.10
664;DHT22;314;48.770;9.246;2022-08-01T14:09:59;31.90;48.60
664;DHT22;314;48.770;9.246;2022-08-01T14:12:25;31.70;47.80
664;DHT22;314;48.770;9.246;2022-08-01T14:14:52;31.50;49.10
664;DHT22;314;48.770;9.246;2022-08-01T14:17:18;31.20;49.10
664;DHT22;314;48.770;9.246;2022-08-01T14:19:43;31.20;50.40
664;DHT22;314;48.770;9.246;2022-08-01T14:22:09;31.30;49.60
664;DHT22;314;48.770;9.246;2022-08-01T14:24:35;31.40;48.70
664;DHT22;314;48.770;9.246;2022-08-01T14:27:01;31.30;49.60
664;DHT22;314;48.770;9.246;2022-08-01T14:29:27;31.40;49.60
664;DHT22;314;48.770;9.246;2022-08-01T14:31:53;31.20;49.80
664;DHT22;314;48.770;9.246;2022-08-01T14:34:19;31.10;49.80
664;DHT22;314;48.770;9.246;2022-08-01T14:36:44;31.10;49.40
664;DHT22;314;48.770;9.246;2022-08-01T14:39:10;31.00;49.20
664;DHT22;314;48.770;9.246;2022-08-01T14:41:36;30.80;49.50
664;DHT22;314;48.770;9.246;2022-08-01T14:44:02;30.60;50.00
664;DHT22;314;48.770;9.246;2022-08-01T14:46:29;30.40;50.90
664;DHT22;314;48.770;9.246;2022-08-01T14:48:55;30.50;50.90
664;DHT22;314;48.770;9.246;2022-08-01T14:51:21;30.70;50.70
664;DHT22;314;48.770;9.246;2022-08-01T14:53:46;30.70;50.70
664;DHT22;314;48.770;9.246;2022-08-01T14:56:12;30.70;50.70
664;DHT22;314;48.770;9.246;2022-08-01T14:58:38;30.80;49.80
664;DHT22;314;48.770;9.246;2022-08-01T15:01:04;30.80;49.90
664;DHT22;314;48.770;9.246;2022-08-01T15:03:31;30.80;50.00
664;DHT22;314;48.770;9.246;2022-08-01T15:05:57;30.90;50.40
664;DHT22;314;48.770;9.246;2022-08-01T15:08:23;31.00;49.90
664;DHT22;314;48.770;9.246;2022-08-01T15:10:49;31.00;48.80
664;DHT22;314;48.770;9.246;2022-08-01T15:13:15;31.00;49.90
664;DHT22;314;48.770;9.246;2022-08-01T15:15:40;30.90;49.80
664;DHT22;314;48.770;9.246;2022-08-01T15:18:06;30.80;50.10
664;DHT22;314;48.770;9.246;2022-08-01T15:20:32;30.80;49.80
664;DHT22;314;48.770;9.246;2022-08-01T15:22:58;31.00;49.60
664;DHT22;314;48.770;9.246;2022-08-01T15:25:24;31.10;49.00
664;DHT22;314;48.770;9.246;2022-08-01T15:27:50;31.20;48.70
664;DHT22;314;48.770;9.246;2022-08-01T15:30:15;31.20;48.30
664;DHT22;314;48.770;9.246;2022-08-01T15:32:41;31.20;48.60
664;DHT22;314;48.770;9.246;2022-08-01T15:35:07;31.10;48.70
664;DHT22;314;48.770;9.246;2022-08-01T15:37:35;30.80;49.50
664;DHT22;314;48.770;9.246;2022-08-01T15:40:01;30.70;49.90
664;DHT22;314;48.770;9.246;2022-08-01T15:42:27;30.70;50.10
664;DHT22;314;48.770;9.246;2022-08-01T15:44:53;30.50;49.80
664;DHT22;314;48.770;9.246;2022-08-01T15:47:19;30.50;50.10
664;DHT22;314;48.770;9.246;2022-08-01T15:49:45;30.40;50.30
664;DHT22;314;48.770;9.246;2022-08-01T15:52:11;30.50;50.30
664;DHT22;314;48.770;9.246;2022-08-01T15:54:37;30.50;49.60
664;DHT22;314;48.770;9.246;2022-08-01T15:57:05;30.50;50.40
664;DHT22;314;48.770;9.246;2022-08-01T15:59:31;30.50;49.50
664;DHT22;314;48.770;9.246;2022-08-01T16:01:57;30.40;49.20
664;DHT22;314;48.770;9.246;2022-08-01T16:04:23;30.20;49.20
664;DHT22;314;48.770;9.246;2022-08-01T16:06:49;30.00;50.00
664;DHT22;314;48.770;9.246;2022-08-01T16:09:15;29.80;50.50
664;DHT22;314;48.770;9.246;2022-08-01T16:11:41;29.70;50.80
664;DHT22;314;48.770;9.246;2022-08-01T16:14:07;29.60;51.20
664;DHT22;314;48.770;9.246;2022-08-01T16:16:33;29.70;51.10
664;DHT22;314;48.770;9.246;2022-08-01T16:18:59;29.60;51.20
664;DHT22;314;48.770;9.246;2022-08-01T16:21:24;29.80;51.20
664;DHT22;314;48.770;9.246;2022-08-01T16:23:50;29.90;50.40
664;DHT22;314;48.770;9.246;2022-08-01T16:26:19;29.90;50.90
664;DHT22;314;48.770;9.246;2022-08-01T16:28:45;29.90;50.50
664;DHT22;314;48.770;9.246;2022-08-01T16:31:13;30.00;50.70
664;DHT22;314;48.770;9.246;2022-08-01T16:33:39;29.90;50.30
664;DHT22;314;48.770;9.246;2022-08-01T16:36:05;29.80;50.90
664;DHT22;314;48.770;9.246;2022-08-01T16:38:31;29.90;50.90
664;DHT22;314;48.770;9.246;2022-08-01T16:40:57;29.80;51.10
664;DHT22;314;48.770;9.246;2022-08-01T16:43:23;29.80;51.10
664;DHT22;314;48.770;9.246;2022-08-01T16:45:48;29.80;50.50
664;DHT22;314;48.770;9.246;2022-08-01T16:48:15;29.70;50.90
664;DHT22;314;48.770;9.246;2022-08-01T16:50:43;29.50;51.30
664;DHT22;314;48.770;9.246;2022-08-01T16:53:09;29.40;51.60
664;DHT22;314;48.770;9.246;2022-08-01T16:55:35;29.30;51.60
664;DHT22;314;48.770;9.246;2022-08-01T16:58:01;29.20;52.10
664;DHT22;314;48.770;9.246;2022-08-01T17:00:33;29.20;51.60
664;DHT22;314;48.770;9.246;2022-08-01T17:03:00;29.20;52.00
664;DHT22;314;48.770;9.246;2022-08-01T17:05:25;29.10;52.10
664;DHT22;314;48.770;9.246;2022-08-01T17:07:53;29.10;52.60
664;DHT22;314;48.770;9.246;2022-08-01T17:10:19;29.10;52.10
664;DHT22;314;48.770;9.246;2022-08-01T17:12:44;29.00;52.20
664;DHT22;314;48.770;9.246;2022-08-01T17:15:10;29.00;52.60
664;DHT22;314;48.770;9.246;2022-08-01T17:17:36;29.00;52.40